createdAt,value
2023-02-26T00:00:09.772Z,74.16
2023-02-26T00:02:56.002Z,74.19
2023-02-26T00:05:41.367Z,74.59
2023-02-26T00:08:26.804Z,74.34
2023-02-26T00:11:12.997Z,74.78
2023-02-26T00:14:03.557Z,73.74
2023-02-26T00:17:14.659Z,73.73
2023-02-26T00:20:02.061Z,73.32
2023-02-26T00:22:47.886Z,73.37
2023-02-26T00:25:33.558Z,73.67
2023-02-26T00:28:19.845Z,73.25
2023-02-26T00:31:05.714Z,72.94
2023-02-26T00:33:56.044Z,73.11
2023-02-26T00:37:08.024Z,73.13
2023-02-26T00:40:17.523Z,73.01
2023-02-26T00:43:05.606Z,72.93
2023-02-26T00:46:22.058Z,72.55
2023-02-26T00:49:45.491Z,72.63
2023-02-26T00:53:05.748Z,72.24
2023-02-26T00:55:54.382Z,72.68
2023-02-26T00:58:39.834Z,72.43
2023-02-26T01:01:26.673Z,72.18
2023-02-26T01:04:13.872Z,71.96
2023-02-26T01:06:59.676Z,72.04
2023-02-26T01:09:49.359Z,72.35
2023-02-26T01:12:35.220Z,72.32
2023-02-26T01:15:22.072Z,72.08
2023-02-26T01:18:27.475Z,72.16
2023-02-26T01:21:19.325Z,71.86
2023-02-26T01:24:08.780Z,71.43
2023-02-26T01:26:54.668Z,71.84
2023-02-26T01:29:40.301Z,71.69
2023-02-26T01:33:00.037Z,71.78
2023-02-26T01:35:53.747Z,71.98
2023-02-26T01:39:11.810Z,71.96
2023-02-26T01:42:08.443Z,71.99
2023-02-26T01:45:02.995Z,71.63
2023-02-26T01:47:54.441Z,71.96
2023-02-26T01:50:40.204Z,71.58
2023-02-26T01:53:26.606Z,71.16
2023-02-26T01:56:18.118Z,71.52
2023-02-26T01:59:06.383Z,71.37
2023-02-26T02:01:56.484Z,71.26
2023-02-26T02:04:43.973Z,70.82
2023-02-26T02:07:30.097Z,71.07
2023-02-26T02:10:16.553Z,70.75
2023-02-26T02:13:14.556Z,70.67
2023-02-26T02:16:17.296Z,70.83
2023-02-26T02:19:09.178Z,70.68
2023-02-26T02:22:25.858Z,70.61
2023-02-26T02:25:24.966Z,70.67
2023-02-26T02:28:44.124Z,70.80
2023-02-26T02:31:44.597Z,70.86
2023-02-26T02:34:36.685Z,70.93
2023-02-26T02:37:34.860Z,71.12
2023-02-26T02:40:29.634Z,70.90
2023-02-26T02:43:25.607Z,70.79
2023-02-26T02:46:26.986Z,70.91
2023-02-26T02:49:22.274Z,71.30
2023-02-26T02:52:30.098Z,71.15
2023-02-26T02:55:32.962Z,70.97
2023-02-26T02:58:24.681Z,71.23
2023-02-26T03:01:15.125Z,70.97
2023-02-26T03:04:07.859Z,71.12
2023-02-26T03:06:55.507Z,71.29
2023-02-26T03:09:42.617Z,70.89
2023-02-26T03:12:33.720Z,71.18
2023-02-26T03:15:32.029Z,70.89
2023-02-26T03:18:29.216Z,70.86
2023-02-26T03:21:29.293Z,70.87
2023-02-26T03:24:22.926Z,70.54
2023-02-26T03:27:27.281Z,70.21
2023-02-26T03:30:26.572Z,70.24
2023-02-26T03:33:22.107Z,70.07
2023-02-26T03:36:18.458Z,70.15
2023-02-26T03:39:22.654Z,69.97
2023-02-26T03:42:14.902Z,70.05
2023-02-26T03:45:16.831Z,69.95
2023-02-26T03:48:07.665Z,70.53
2023-02-26T03:50:58.505Z,70.59
2023-02-26T03:54:20.818Z,70.66
2023-02-26T03:57:15.543Z,70.25
2023-02-26T04:00:20.680Z,70.18
2023-02-26T04:03:32.788Z,69.88
2023-02-26T04:06:20.356Z,70.17
2023-02-26T04:09:06.218Z,70.77
2023-02-26T04:11:57.297Z,70.13
2023-02-26T04:14:42.654Z,70.32
2023-02-26T04:17:30.364Z,70.37
2023-02-26T04:20:17.199Z,70.40
2023-02-26T04:23:02.833Z,70.10
2023-02-26T04:25:48.228Z,70.55
2023-02-26T04:28:37.734Z,70.61
2023-02-26T04:31:23.266Z,70.30
2023-02-26T04:34:09.144Z,71.25
2023-02-26T04:36:55.218Z,71.32
2023-02-26T04:39:40.703Z,71.39
2023-02-26T04:42:29.130Z,71.38
2023-02-26T04:45:14.680Z,71.69
2023-02-26T04:48:00.157Z,71.83
2023-02-26T04:50:45.863Z,71.93
2023-02-26T04:53:31.305Z,71.88
2023-02-26T04:56:16.919Z,71.72
2023-02-26T04:59:03.593Z,72.03
2023-02-26T05:01:49.846Z,72.63
2023-02-26T05:04:35.433Z,72.29
2023-02-26T05:07:21.969Z,72.55
2023-02-26T05:10:10.332Z,72.85
2023-02-26T05:12:56.080Z,72.99
2023-02-26T05:15:41.753Z,72.94
2023-02-26T05:18:27.211Z,72.96
2023-02-26T05:21:12.870Z,72.76
2023-02-26T05:23:59.134Z,73.23
2023-02-26T05:26:44.906Z,73.41
2023-02-26T05:29:30.490Z,73.48
2023-02-26T05:32:16.953Z,73.35
2023-02-26T05:35:04.036Z,73.79
2023-02-26T05:37:49.454Z,73.97
2023-02-26T05:40:35.318Z,73.86
2023-02-26T05:43:21.087Z,73.90
2023-02-26T05:46:06.759Z,73.82
2023-02-26T05:48:52.066Z,73.89
2023-02-26T05:51:38.578Z,73.74
2023-02-26T05:54:24.459Z,73.94
2023-02-26T05:57:10.269Z,73.86
2023-02-26T05:59:56.037Z,73.75
2023-02-26T06:02:42.135Z,73.54
2023-02-26T06:05:29.291Z,73.42
2023-02-26T06:08:16.670Z,73.83
2023-02-26T06:11:06.070Z,73.81
2023-02-26T06:13:51.668Z,73.79
2023-02-26T06:16:37.262Z,73.68
2023-02-26T06:19:22.942Z,73.45
2023-02-26T06:22:08.695Z,73.47
2023-02-26T06:24:57.741Z,73.50
2023-02-26T06:27:43.316Z,73.79
2023-02-26T06:30:29.122Z,73.50
2023-02-26T06:33:14.382Z,73.57
2023-02-26T06:36:00.333Z,72.93
2023-02-26T06:38:46.730Z,73.56
2023-02-26T06:41:32.037Z,73.40
2023-02-26T06:44:18.163Z,73.21
2023-02-26T06:47:04.095Z,73.44
2023-02-26T06:49:49.599Z,73.44
2023-02-26T06:52:35.469Z,73.41
2023-02-26T06:55:21.943Z,73.44
2023-02-26T06:58:07.585Z,74.01
2023-02-26T07:00:53.219Z,73.54
2023-02-26T07:03:38.511Z,73.99
2023-02-26T07:06:28.001Z,74.08
2023-02-26T07:09:14.167Z,73.81
2023-02-26T07:11:59.510Z,74.47
2023-02-26T07:14:46.012Z,74.83
2023-02-26T07:17:32.067Z,74.86
2023-02-26T07:20:18.236Z,75.25
2023-02-26T07:23:04.235Z,75.33
2023-02-26T07:25:50.115Z,74.96
2023-02-26T07:28:36.661Z,75.28
2023-02-26T07:31:22.253Z,75.59
2023-02-26T07:34:07.644Z,75.16
2023-02-26T07:36:53.188Z,75.39
2023-02-26T07:39:38.781Z,74.93
2023-02-26T07:42:24.385Z,75.15
2023-02-26T07:45:24.796Z,75.28
2023-02-26T07:48:10.553Z,75.00
2023-02-26T07:50:57.565Z,75.00
2023-02-26T07:53:44.133Z,75.20
2023-02-26T07:56:40.141Z,75.65
2023-02-26T07:59:29.462Z,75.37
2023-02-26T08:02:14.733Z,75.46
2023-02-26T08:05:00.351Z,76.16
2023-02-26T08:07:45.730Z,75.87
2023-02-26T08:10:32.308Z,75.81
2023-02-26T08:13:28.908Z,75.42
2023-02-26T08:16:17.623Z,75.44
2023-02-26T08:19:04.338Z,75.21
2023-02-26T08:21:50.886Z,73.99
2023-02-26T08:24:36.425Z,73.61
2023-02-26T08:27:21.910Z,73.37
2023-02-26T08:30:08.091Z,73.49
2023-02-26T08:32:53.899Z,73.77
2023-02-26T08:35:39.314Z,73.59
2023-02-26T08:38:29.291Z,74.33
2023-02-26T08:41:15.290Z,74.44
2023-02-26T08:44:03.840Z,72.45
2023-02-26T08:46:49.396Z,73.03
2023-02-26T08:49:34.693Z,73.29
2023-02-26T08:52:20.960Z,73.29
2023-02-26T08:55:06.850Z,73.36
2023-02-26T08:57:53.124Z,72.76
2023-02-26T09:00:38.811Z,72.53
2023-02-26T09:03:25.104Z,72.32
2023-02-26T09:06:10.791Z,71.17
2023-02-26T09:08:57.609Z,70.45
2023-02-26T09:11:43.695Z,68.02
2023-02-26T09:14:29.227Z,68.28
2023-02-26T09:17:14.930Z,67.16
2023-02-26T09:20:00.749Z,67.70
2023-02-26T09:22:46.237Z,67.19
2023-02-26T09:25:32.834Z,67.14
2023-02-26T09:28:18.215Z,66.28
2023-02-26T09:31:04.558Z,66.39
2023-02-26T09:33:57.968Z,66.34
2023-02-26T09:36:44.978Z,67.52
2023-02-26T09:39:32.796Z,67.88
2023-02-26T09:42:44.640Z,68.69
2023-02-26T09:45:44.545Z,66.25
2023-02-26T09:48:37.730Z,67.46
2023-02-26T09:51:24.184Z,65.85
2023-02-26T09:54:20.527Z,65.23
2023-02-26T09:57:12.069Z,66.61
2023-02-26T10:00:00.723Z,64.43
2023-02-26T10:02:59.932Z,65.53
2023-02-26T10:06:10.879Z,63.61
2023-02-26T10:09:23.225Z,64.22
2023-02-26T10:12:25.276Z,63.99
2023-02-26T10:15:17.093Z,64.69
2023-02-26T10:18:23.798Z,62.56
2023-02-26T10:21:24.814Z,63.77
2023-02-26T10:24:36.736Z,64.13
2023-02-26T10:27:45.098Z,63.97
2023-02-26T10:30:44.006Z,64.30
2023-02-26T10:33:51.152Z,65.56
2023-02-26T10:36:58.120Z,65.46
2023-02-26T10:40:09.255Z,65.68
2023-02-26T10:43:14.860Z,66.37
2023-02-26T10:46:24.526Z,65.71
2023-02-26T10:49:22.841Z,65.79
2023-02-26T10:52:19.355Z,66.09
2023-02-26T10:55:07.898Z,65.76
2023-02-26T10:58:05.214Z,64.26
2023-02-26T11:00:54.604Z,64.21
2023-02-26T11:03:44.645Z,64.59
2023-02-26T11:06:34.896Z,65.35
2023-02-26T11:09:25.630Z,64.04
2023-02-26T11:12:11.298Z,64.43
2023-02-26T11:14:57.203Z,65.60
2023-02-26T11:17:43.630Z,65.32
2023-02-26T11:20:42.490Z,65.32
2023-02-26T11:23:33.307Z,65.06
2023-02-26T11:26:26.950Z,65.15
2023-02-26T11:29:20.231Z,64.72
2023-02-26T11:32:07.004Z,62.77
2023-02-26T11:34:55.003Z,64.40
2023-02-26T11:37:46.085Z,64.66
2023-02-26T11:40:41.142Z,63.94
2023-02-26T11:43:45.280Z,63.96
2023-02-26T11:46:32.016Z,65.11
2023-02-26T11:49:21.405Z,64.87
2023-02-26T11:52:22.154Z,64.70
2023-02-26T11:55:30.329Z,63.54
2023-02-26T11:58:23.436Z,62.34
2023-02-26T12:01:12.738Z,62.14
2023-02-26T12:04:02.078Z,63.23
2023-02-26T12:06:50.902Z,64.04
2023-02-26T12:09:36.481Z,64.86
2023-02-26T12:12:23.061Z,64.57
2023-02-26T12:15:16.005Z,65.14
2023-02-26T12:18:15.843Z,65.68
2023-02-26T12:21:07.453Z,65.74
2023-02-26T12:24:21.676Z,64.76
2023-02-26T12:27:43.348Z,64.55
2023-02-26T12:30:59.490Z,64.74
2023-02-26T12:34:18.005Z,64.03
2023-02-26T12:37:42.782Z,65.07
2023-02-26T12:40:37.278Z,65.24
2023-02-26T12:43:34.741Z,64.89
2023-02-26T12:46:36.350Z,65.81
2023-02-26T12:49:28.347Z,64.76
2023-02-26T12:53:11.102Z,65.38
2023-02-26T12:56:45.651Z,64.93
2023-02-26T13:00:13.277Z,65.57
2023-02-26T13:03:37.557Z,66.30
2023-02-26T13:06:42.783Z,66.53
2023-02-26T13:09:47.813Z,65.45
2023-02-26T13:12:43.516Z,65.94
2023-02-26T13:15:50.142Z,66.60
2023-02-26T13:18:57.621Z,65.82
2023-02-26T13:21:51.854Z,66.35
2023-02-26T13:24:43.314Z,66.70
2023-02-26T13:27:34.397Z,67.02
2023-02-26T13:30:29.436Z,67.32
2023-02-26T13:33:23.137Z,67.34
2023-02-26T13:36:15.602Z,68.16
2023-02-26T13:39:21.567Z,68.50
2023-02-26T13:42:38.011Z,68.50
2023-02-26T13:45:26.797Z,69.23
2023-02-26T13:48:12.618Z,68.49
2023-02-26T13:51:13.930Z,68.09
2023-02-26T13:54:05.075Z,68.62
2023-02-26T13:57:07.144Z,68.84
2023-02-26T14:00:20.872Z,68.64
2023-02-26T14:03:31.147Z,68.72
2023-02-26T14:06:35.543Z,69.03
2023-02-26T14:09:25.845Z,68.81
2023-02-26T14:12:14.533Z,69.11
2023-02-26T14:15:00.392Z,69.04
2023-02-26T14:17:51.030Z,68.99
2023-02-26T14:20:37.093Z,69.08
2023-02-26T14:23:37.799Z,68.14
2023-02-26T14:26:25.586Z,67.23
2023-02-26T14:29:20.357Z,67.93
2023-02-26T14:32:30.501Z,68.29
2023-02-26T14:35:25.922Z,68.07
2023-02-26T14:38:36.306Z,67.31
2023-02-26T14:41:34.164Z,67.80
2023-02-26T14:44:25.545Z,67.32
2023-02-26T14:47:12.745Z,68.02
2023-02-26T14:50:01.348Z,67.91
2023-02-26T14:53:15.782Z,68.57
2023-02-26T14:56:07.454Z,68.77
2023-02-26T14:59:18.716Z,69.24
2023-02-26T15:02:25.018Z,69.50
2023-02-26T15:05:34.771Z,69.24
2023-02-26T15:08:58.943Z,69.66
2023-02-26T15:12:15.042Z,69.47
2023-02-26T15:15:15.355Z,69.94
2023-02-26T15:18:15.425Z,70.32
2023-02-26T15:21:08.308Z,70.65
2023-02-26T15:23:55.550Z,70.29
2023-02-26T15:26:58.959Z,69.56
2023-02-26T15:29:48.377Z,69.93
2023-02-26T15:32:38.267Z,70.06
2023-02-26T15:35:29.312Z,70.08
2023-02-26T15:38:15.010Z,69.91
2023-02-26T15:41:03.975Z,70.11
2023-02-26T15:43:55.648Z,69.64
2023-02-26T15:46:46.013Z,69.57
2023-02-26T15:49:41.814Z,70.18
2023-02-26T15:52:28.927Z,70.19
2023-02-26T15:55:18.373Z,70.33
2023-02-26T15:58:06.409Z,70.54
2023-02-26T16:00:56.300Z,70.19
2023-02-26T16:03:41.795Z,70.12
2023-02-26T16:06:37.424Z,69.85
2023-02-26T16:09:51.434Z,69.99
2023-02-26T16:12:40.545Z,70.10
2023-02-26T16:15:37.003Z,69.83
2023-02-26T16:18:26.269Z,69.65
2023-02-26T16:21:34.433Z,69.63
2023-02-26T16:24:23.102Z,69.82
2023-02-26T16:27:13.864Z,69.85
2023-02-26T16:30:01.648Z,68.54
2023-02-26T16:32:54.188Z,68.58
2023-02-26T16:35:48.808Z,68.75
2023-02-26T16:38:46.375Z,68.80
2023-02-26T16:41:37.899Z,68.18
2023-02-26T16:44:32.394Z,67.82
2023-02-26T16:47:24.880Z,67.68
2023-02-26T16:50:38.289Z,68.66
2023-02-26T16:53:30.502Z,68.50
2023-02-26T16:56:18.884Z,68.93
2023-02-26T16:59:24.476Z,69.24
2023-02-26T17:02:18.985Z,69.15
2023-02-26T17:05:18.903Z,69.04
2023-02-26T17:08:20.344Z,69.48
2023-02-26T17:11:33.422Z,69.93
2023-02-26T17:14:27.204Z,70.84
2023-02-26T17:17:12.992Z,71.27
2023-02-26T17:20:01.100Z,71.36
2023-02-26T17:22:47.592Z,71.55
2023-02-26T17:25:40.777Z,71.71
2023-02-26T17:28:31.100Z,71.72
2023-02-26T17:31:16.500Z,71.50
2023-02-26T17:34:01.939Z,71.40
2023-02-26T17:36:48.820Z,71.77
2023-02-26T17:39:34.496Z,71.89
2023-02-26T17:42:23.786Z,72.19
2023-02-26T17:45:10.263Z,72.27
2023-02-26T17:47:55.745Z,71.99
2023-02-26T17:50:55.316Z,71.82
2023-02-26T17:53:41.046Z,71.42
2023-02-26T17:56:29.412Z,71.78
2023-02-26T17:59:15.515Z,72.37
2023-02-26T18:02:01.071Z,72.06
2023-02-26T18:04:46.671Z,72.00
2023-02-26T18:07:32.594Z,71.91
2023-02-26T18:10:24.600Z,71.63
2023-02-26T18:13:11.662Z,71.65
2023-02-26T18:15:58.900Z,71.75
2023-02-26T18:18:45.908Z,71.14
2023-02-26T18:21:33.282Z,71.79
2023-02-26T18:24:18.583Z,71.32
2023-02-26T18:27:04.147Z,71.10
2023-02-26T18:29:50.015Z,71.65
2023-02-26T18:32:36.241Z,71.50
2023-02-26T18:35:24.221Z,71.91
2023-02-26T18:38:15.369Z,71.77
2023-02-26T18:41:02.367Z,71.32
2023-02-26T18:43:47.829Z,71.36
2023-02-26T18:46:35.409Z,71.83
2023-02-26T18:49:22.052Z,72.15
2023-02-26T18:52:10.805Z,72.05
2023-02-26T18:54:56.622Z,73.04
2023-02-26T18:57:43.165Z,72.72
2023-02-26T19:00:29.413Z,73.19
2023-02-26T19:03:15.369Z,73.85
2023-02-26T19:06:03.307Z,73.74
2023-02-26T19:08:49.019Z,73.98
2023-02-26T19:11:34.702Z,74.51
2023-02-26T19:14:20.048Z,74.33
2023-02-26T19:17:05.755Z,74.67
2023-02-26T19:19:51.060Z,74.40
2023-02-26T19:22:39.353Z,73.80
2023-02-26T19:25:27.116Z,74.23
2023-02-26T19:28:12.747Z,74.48
2023-02-26T19:30:58.512Z,74.74
2023-02-26T19:33:44.901Z,74.66
2023-02-26T19:36:33.642Z,74.52
2023-02-26T19:39:20.172Z,74.37
2023-02-26T19:42:06.589Z,73.75
2023-02-26T19:44:52.237Z,74.18
2023-02-26T19:47:40.616Z,73.80
2023-02-26T19:50:27.424Z,73.89
2023-02-26T19:53:13.136Z,73.99
2023-02-26T19:55:58.521Z,73.54
2023-02-26T19:58:44.028Z,74.00
2023-02-26T20:01:29.873Z,74.54
2023-02-26T20:04:17.140Z,74.33
2023-02-26T20:07:06.204Z,73.96
2023-02-26T20:09:52.210Z,74.30
2023-02-26T20:12:38.224Z,74.11
2023-02-26T20:15:27.341Z,74.67
2023-02-26T20:18:13.681Z,74.43
2023-02-26T20:21:08.296Z,73.98
2023-02-26T20:23:57.670Z,74.33
2023-02-26T20:26:45.057Z,74.16
2023-02-26T20:29:30.759Z,74.45
2023-02-26T20:32:19.719Z,74.40
2023-02-26T20:35:05.775Z,74.09
2023-02-26T20:37:51.072Z,74.02
2023-02-26T20:40:36.746Z,73.96
2023-02-26T20:43:23.060Z,73.88
2023-02-26T20:46:10.577Z,73.41
2023-02-26T20:48:56.426Z,73.46
2023-02-26T20:51:42.976Z,72.99
2023-02-26T20:54:28.782Z,73.61
2023-02-26T20:57:14.636Z,73.28
2023-02-26T20:59:59.888Z,73.39
2023-02-26T21:02:46.670Z,74.05
2023-02-26T21:05:34.499Z,73.60
2023-02-26T21:08:19.723Z,73.56
2023-02-26T21:11:08.339Z,73.52
2023-02-26T21:13:53.964Z,74.12
2023-02-26T21:16:41.462Z,73.91
2023-02-26T21:19:31.083Z,74.47
2023-02-26T21:22:20.818Z,75.06
2023-02-26T21:25:09.928Z,74.40
2023-02-26T21:27:59.221Z,74.92
2023-02-26T21:30:44.671Z,75.13
2023-02-26T21:33:30.533Z,75.29
2023-02-26T21:36:16.779Z,75.21
2023-02-26T21:39:02.794Z,74.94
2023-02-26T21:41:48.838Z,74.46
2023-02-26T21:44:36.357Z,74.20
2023-02-26T21:47:21.642Z,74.76
2023-02-26T21:50:07.840Z,75.00
2023-02-26T21:52:53.295Z,75.01
2023-02-26T21:55:39.622Z,75.05
2023-02-26T21:58:25.749Z,75.48
2023-02-26T22:01:11.301Z,75.31
2023-02-26T22:03:56.729Z,74.56
2023-02-26T22:06:42.181Z,74.45
2023-02-26T22:09:27.894Z,74.69
2023-02-26T22:12:17.272Z,75.18
2023-02-26T22:15:02.697Z,75.12
2023-02-26T22:17:48.212Z,74.89
2023-02-26T22:20:33.673Z,74.53
2023-02-26T22:23:19.301Z,75.09
2023-02-26T22:26:05.137Z,74.48
2023-02-26T22:28:50.356Z,75.23
2023-02-26T22:31:36.017Z,75.37
2023-02-26T22:34:21.269Z,74.67
2023-02-26T22:37:06.835Z,75.43
2023-02-26T22:39:52.314Z,75.15
2023-02-26T22:42:37.835Z,76.03
2023-02-26T22:45:23.111Z,75.52
2023-02-26T22:48:09.066Z,75.91
2023-02-26T22:50:54.819Z,75.47
2023-02-26T22:53:40.532Z,75.23
2023-02-26T22:56:27.934Z,74.86
2023-02-26T22:59:13.508Z,74.80
2023-02-26T23:01:59.038Z,75.07
2023-02-26T23:04:44.552Z,74.30
2023-02-26T23:07:30.028Z,74.76
2023-02-26T23:10:18.267Z,73.68
2023-02-26T23:13:04.145Z,74.63
2023-02-26T23:15:50.459Z,74.84
2023-02-26T23:18:37.282Z,74.67
2023-02-26T23:21:22.981Z,74.71
2023-02-26T23:24:08.510Z,74.54
2023-02-26T23:26:54.029Z,74.85
2023-02-26T23:29:42.168Z,74.93
2023-02-26T23:32:27.668Z,74.39
2023-02-26T23:35:12.997Z,73.92
2023-02-26T23:37:58.520Z,74.22
2023-02-26T23:40:43.987Z,73.98
2023-02-26T23:43:29.529Z,74.23
2023-02-26T23:46:17.122Z,74.45
2023-02-26T23:49:03.163Z,73.60
2023-02-26T23:51:48.852Z,73.89
2023-02-26T23:54:34.129Z,73.55
2023-02-26T23:57:21.411Z,73.36
